sensor_id;sensor_type;location;lat;lon;timestamp;P1;durP1;ratioP1;P2;durP2;ratioP2
18449;SDS011;9354;50.194;7.690;2023-06-22T00:02:21;10.00;;;5.93;;
18449;SDS011;9354;50.194;7.690;2023-06-22T00:04:48;8.37;;;6.00;;
18449;SDS011;9354;50.194;7.690;2023-06-22T00:07:17;11.10;;;5.80;;
18449;SDS011;9354;50.194;7.690;2023-06-22T00:09:44;8.83;;;6.03;;
18449;SDS011;9354;50.194;7.690;2023-06-22T00:12:12;9.73;;;6.03;;
18449;SDS011;9354;50.194;7.690;2023-06-22T00:14:39;7.97;;;5.93;;
18449;SDS011;9354;50.194;7.690;2023-06-22T00:17:06;8.97;;;5.40;;
18449;SDS011;9354;50.194;7.690;2023-06-22T00:19:34;8.37;;;6.10;;
18449;SDS011;9354;50.194;7.690;2023-06-22T00:22:02;8.83;;;6.03;;
18449;SDS011;9354;50.194;7.690;2023-06-22T00:24:31;11.30;;;6.73;;
18449;SDS011;9354;50.194;7.690;2023-06-22T00:26:58;9.50;;;6.37;;
18449;SDS011;9354;50.194;7.690;2023-06-22T00:29:26;10.90;;;6.47;;
18449;SDS011;9354;50.194;7.690;2023-06-22T00:31:53;8.27;;;6.03;;
18449;SDS011;9354;50.194;7.690;2023-06-22T00:34:20;10.73;;;6.10;;
18449;SDS011;9354;50.194;7.690;2023-06-22T00:36:47;10.27;;;6.27;;
18449;SDS011;9354;50.194;7.690;2023-06-22T00:39:17;9.30;;;6.40;;
18449;SDS011;9354;50.194;7.690;2023-06-22T00:41:46;11.70;;;6.27;;
18449;SDS011;9354;50.194;7.690;2023-06-22T00:44:13;9.03;;;5.87;;
18449;SDS011;9354;50.194;7.690;2023-06-22T00:46:40;8.70;;;6.10;;
18449;SDS011;9354;50.194;7.690;2023-06-22T00:49:08;9.73;;;5.90;;
18449;SDS011;9354;50.194;7.690;2023-06-22T00:51:35;11.00;;;6.27;;
18449;SDS011;9354;50.194;7.690;2023-06-22T00:54:04;13.67;;;6.10;;
18449;SDS011;9354;50.194;7.690;2023-06-22T00:56:32;9.17;;;6.30;;
18449;SDS011;9354;50.194;7.690;2023-06-22T00:59:04;9.50;;;6.53;;
18449;SDS011;9354;50.194;7.690;2023-06-22T01:01:31;9.13;;;6.50;;
18449;SDS011;9354;50.194;7.690;2023-06-22T01:03:59;9.63;;;6.30;;
18449;SDS011;9354;50.194;7.690;2023-06-22T01:06:28;10.10;;;6.73;;
18449;SDS011;9354;50.194;7.690;2023-06-22T01:09:06;18.43;;;7.80;;
18449;SDS011;9354;50.194;7.690;2023-06-22T01:11:41;9.57;;;6.90;;
18449;SDS011;9354;50.194;7.690;2023-06-22T01:14:14;11.80;;;6.93;;
18449;SDS011;9354;50.194;7.690;2023-06-22T01:16:47;10.17;;;6.90;;
18449;SDS011;9354;50.194;7.690;2023-06-22T01:19:20;9.83;;;6.70;;
18449;SDS011;9354;50.194;7.690;2023-06-22T01:22:01;10.83;;;6.30;;
18449;SDS011;9354;50.194;7.690;2023-06-22T01:24:32;10.23;;;6.53;;
18449;SDS011;9354;50.194;7.690;2023-06-22T01:27:09;9.10;;;7.07;;
18449;SDS011;9354;50.194;7.690;2023-06-22T01:29:49;13.57;;;6.97;;
18449;SDS011;9354;50.194;7.690;2023-06-22T01:32:18;9.77;;;7.17;;
18449;SDS011;9354;50.194;7.690;2023-06-22T01:34:46;9.50;;;6.83;;
18449;SDS011;9354;50.194;7.690;2023-06-22T01:37:15;11.07;;;7.50;;
18449;SDS011;9354;50.194;7.690;2023-06-22T01:39:42;14.83;;;7.27;;
18449;SDS011;9354;50.194;7.690;2023-06-22T01:42:11;12.67;;;6.90;;
18449;SDS011;9354;50.194;7.690;2023-06-22T01:44:39;11.63;;;7.17;;
18449;SDS011;9354;50.194;7.690;2023-06-22T01:47:08;13.77;;;7.33;;
18449;SDS011;9354;50.194;7.690;2023-06-22T01:49:36;14.03;;;7.40;;
18449;SDS011;9354;50.194;7.690;2023-06-22T01:52:04;11.20;;;7.37;;
18449;SDS011;9354;50.194;7.690;2023-06-22T01:54:32;11.60;;;7.80;;
18449;SDS011;9354;50.194;7.690;2023-06-22T01:56:59;11.10;;;7.40;;
18449;SDS011;9354;50.194;7.690;2023-06-22T01:59:28;11.03;;;7.67;;
18449;SDS011;9354;50.194;7.690;2023-06-22T02:02:01;10.57;;;7.63;;
18449;SDS011;9354;50.194;7.690;2023-06-22T02:04:36;16.17;;;7.27;;
18449;SDS011;9354;50.194;7.690;2023-06-22T02:07:12;12.67;;;7.43;;
18449;SDS011;9354;50.194;7.690;2023-06-22T02:09:44;13.23;;;7.57;;
18449;SDS011;9354;50.194;7.690;2023-06-22T02:12:13;13.57;;;7.70;;
18449;SDS011;9354;50.194;7.690;2023-06-22T02:14:45;11.00;;;7.13;;
18449;SDS011;9354;50.194;7.690;2023-06-22T02:17:13;10.00;;;7.10;;
18449;SDS011;9354;50.194;7.690;2023-06-22T02:19:42;11.87;;;6.83;;
18449;SDS011;9354;50.194;7.690;2023-06-22T02:22:10;10.77;;;7.50;;
18449;SDS011;9354;50.194;7.690;2023-06-22T02:24:38;11.10;;;7.47;;
18449;SDS011;9354;50.194;7.690;2023-06-22T02:27:05;11.37;;;7.00;;
18449;SDS011;9354;50.194;7.690;2023-06-22T02:29:33;10.83;;;7.93;;
18449;SDS011;9354;50.194;7.690;2023-06-22T02:32:00;11.67;;;7.57;;
18449;SDS011;9354;50.194;7.690;2023-06-22T02:34:28;11.37;;;7.57;;
18449;SDS011;9354;50.194;7.690;2023-06-22T02:36:56;10.97;;;7.30;;
18449;SDS011;9354;50.194;7.690;2023-06-22T02:39:26;11.43;;;7.73;;
18449;SDS011;9354;50.194;7.690;2023-06-22T02:41:54;11.17;;;8.20;;
18449;SDS011;9354;50.194;7.690;2023-06-22T02:44:21;12.67;;;7.93;;
18449;SDS011;9354;50.194;7.690;2023-06-22T02:46:49;11.63;;;8.13;;
18449;SDS011;9354;50.194;7.690;2023-06-22T02:49:16;14.57;;;8.67;;
18449;SDS011;9354;50.194;7.690;2023-06-22T02:51:45;13.43;;;8.20;;
18449;SDS011;9354;50.194;7.690;2023-06-22T02:54:15;14.93;;;8.47;;
18449;SDS011;9354;50.194;7.690;2023-06-22T02:56:43;12.43;;;8.07;;
18449;SDS011;9354;50.194;7.690;2023-06-22T02:59:10;12.30;;;7.97;;
18449;SDS011;9354;50.194;7.690;2023-06-22T03:01:37;12.77;;;7.87;;
18449;SDS011;9354;50.194;7.690;2023-06-22T03:04:06;11.87;;;7.20;;
18449;SDS011;9354;50.194;7.690;2023-06-22T03:06:33;15.40;;;7.97;;
18449;SDS011;9354;50.194;7.690;2023-06-22T03:09:02;14.90;;;8.43;;
18449;SDS011;9354;50.194;7.690;2023-06-22T03:11:32;11.30;;;8.00;;
18449;SDS011;9354;50.194;7.690;2023-06-22T03:14:00;10.80;;;7.50;;
18449;SDS011;9354;50.194;7.690;2023-06-22T03:16:28;10.93;;;7.73;;
18449;SDS011;9354;50.194;7.690;2023-06-22T03:18:55;16.47;;;8.40;;
18449;SDS011;9354;50.194;7.690;2023-06-22T03:21:23;12.03;;;7.77;;
18449;SDS011;9354;50.194;7.690;2023-06-22T03:23:50;12.03;;;7.77;;
18449;SDS011;9354;50.194;7.690;2023-06-22T03:26:18;10.40;;;7.40;;
18449;SDS011;9354;50.194;7.690;2023-06-22T03:28:47;15.63;;;7.40;;
18449;SDS011;9354;50.194;7.690;2023-06-22T03:31:14;11.33;;;7.87;;
18449;SDS011;9354;50.194;7.690;2023-06-22T03:33:41;13.83;;;8.27;;
18449;SDS011;9354;50.194;7.690;2023-06-22T03:36:09;12.53;;;8.10;;
18449;SDS011;9354;50.194;7.690;2023-06-22T03:38:36;14.13;;;8.20;;
18449;SDS011;9354;50.194;7.690;2023-06-22T03:41:04;11.33;;;7.93;;
18449;SDS011;9354;50.194;7.690;2023-06-22T03:43:31;11.97;;;8.73;;
18449;SDS011;9354;50.194;7.690;2023-06-22T03:46:00;14.17;;;8.57;;
18449;SDS011;9354;50.194;7.690;2023-06-22T03:48:27;12.23;;;8.73;;
18449;SDS011;9354;50.194;7.690;2023-06-22T03:50:55;16.97;;;8.83;;
18449;SDS011;9354;50.194;7.690;2023-06-22T03:53:22;13.63;;;9.20;;
18449;SDS011;9354;50.194;7.690;2023-06-22T03:55:49;13.97;;;8.60;;
18449;SDS011;9354;50.194;7.690;2023-06-22T03:58:18;14.50;;;8.80;;
18449;SDS011;9354;50.194;7.690;2023-06-22T04:00:46;16.27;;;8.07;;
18449;SDS011;9354;50.194;7.690;2023-06-22T04:03:15;13.20;;;8.90;;
18449;SDS011;9354;50.194;7.690;2023-06-22T04:05:44;15.30;;;8.80;;
18449;SDS011;9354;50.194;7.690;2023-06-22T04:08:12;13.57;;;9.00;;
18449;SDS011;9354;50.194;7.690;2023-06-22T04:10:39;14.17;;;8.50;;
18449;SDS011;9354;50.194;7.690;2023-06-22T04:13:07;12.83;;;8.67;;
18449;SDS011;9354;50.194;7.690;2023-06-22T04:15:34;17.20;;;9.03;;
18449;SDS011;9354;50.194;7.690;2023-06-22T04:18:02;19.30;;;8.67;;
18449;SDS011;9354;50.194;7.690;2023-06-22T04:20:31;22.80;;;9.83;;
18449;SDS011;9354;50.194;7.690;2023-06-22T04:22:59;18.93;;;9.33;;
18449;SDS011;9354;50.194;7.690;2023-06-22T04:25:26;16.37;;;9.93;;
18449;SDS011;9354;50.194;7.690;2023-06-22T04:27:53;14.57;;;9.93;;
18449;SDS011;9354;50.194;7.690;2023-06-22T04:30:21;18.20;;;9.77;;
18449;SDS011;9354;50.194;7.690;2023-06-22T04:32:48;18.63;;;10.50;;
18449;SDS011;9354;50.194;7.690;2023-06-22T04:35:21;22.10;;;11.43;;
18449;SDS011;9354;50.194;7.690;2023-06-22T04:37:50;20.07;;;10.30;;
18449;SDS011;9354;50.194;7.690;2023-06-22T04:40:20;15.43;;;9.73;;
18449;SDS011;9354;50.194;7.690;2023-06-22T04:42:49;19.57;;;9.70;;
18449;SDS011;9354;50.194;7.690;2023-06-22T04:45:19;20.10;;;10.43;;
18449;SDS011;9354;50.194;7.690;2023-06-22T04:47:47;19.00;;;10.30;;
18449;SDS011;9354;50.194;7.690;2023-06-22T04:50:14;13.83;;;9.77;;
18449;SDS011;9354;50.194;7.690;2023-06-22T04:52:43;13.47;;;9.37;;
18449;SDS011;9354;50.194;7.690;2023-06-22T04:55:12;13.63;;;9.63;;
18449;SDS011;9354;50.194;7.690;2023-06-22T04:57:43;15.33;;;9.10;;
18449;SDS011;9354;50.194;7.690;2023-06-22T05:00:14;19.17;;;10.10;;
18449;SDS011;9354;50.194;7.690;2023-06-22T05:02:43;20.57;;;9.50;;
18449;SDS011;9354;50.194;7.690;2023-06-22T05:05:11;22.33;;;10.53;;
18449;SDS011;9354;50.194;7.690;2023-06-22T05:07:41;24.10;;;9.93;;
18449;SDS011;9354;50.194;7.690;2023-06-22T05:10:10;19.50;;;9.93;;
18449;SDS011;9354;50.194;7.690;2023-06-22T05:12:39;17.27;;;9.73;;
18449;SDS011;9354;50.194;7.690;2023-06-22T05:15:07;18.53;;;9.03;;
18449;SDS011;9354;50.194;7.690;2023-06-22T05:17:35;13.03;;;9.20;;
18449;SDS011;9354;50.194;7.690;2023-06-22T05:20:08;18.00;;;9.37;;
18449;SDS011;9354;50.194;7.690;2023-06-22T05:22:36;16.50;;;9.03;;
18449;SDS011;9354;50.194;7.690;2023-06-22T05:25:05;18.47;;;9.20;;
18449;SDS011;9354;50.194;7.690;2023-06-22T05:27:36;19.83;;;9.60;;
18449;SDS011;9354;50.194;7.690;2023-06-22T05:30:05;19.53;;;9.90;;
18449;SDS011;9354;50.194;7.690;2023-06-22T05:32:33;15.47;;;9.40;;
18449;SDS011;9354;50.194;7.690;2023-06-22T05:35:01;16.23;;;10.37;;
18449;SDS011;9354;50.194;7.690;2023-06-22T05:37:29;18.33;;;9.83;;
18449;SDS011;9354;50.194;7.690;2023-06-22T05:39:56;15.23;;;10.47;;
18449;SDS011;9354;50.194;7.690;2023-06-22T05:42:24;20.27;;;10.27;;
18449;SDS011;9354;50.194;7.690;2023-06-22T05:44:53;15.93;;;8.90;;
18449;SDS011;9354;50.194;7.690;2023-06-22T05:47:20;18.73;;;10.63;;
18449;SDS011;9354;50.194;7.690;2023-06-22T05:49:48;21.90;;;10.10;;
18449;SDS011;9354;50.194;7.690;2023-06-22T05:52:15;15.97;;;10.37;;
18449;SDS011;9354;50.194;7.690;2023-06-22T05:54:43;16.87;;;9.43;;
18449;SDS011;9354;50.194;7.690;2023-06-22T05:57:10;17.07;;;9.37;;
18449;SDS011;9354;50.194;7.690;2023-06-22T05:59:37;14.53;;;9.20;;
18449;SDS011;9354;50.194;7.690;2023-06-22T06:02:06;13.90;;;9.17;;
18449;SDS011;9354;50.194;7.690;2023-06-22T06:04:34;19.00;;;9.83;;
18449;SDS011;9354;50.194;7.690;2023-06-22T06:07:01;13.07;;;9.40;;
18449;SDS011;9354;50.194;7.690;2023-06-22T06:09:29;16.27;;;9.47;;
18449;SDS011;9354;50.194;7.690;2023-06-22T06:11:56;13.60;;;9.90;;
18449;SDS011;9354;50.194;7.690;2023-06-22T06:14:23;17.27;;;9.90;;
18449;SDS011;9354;50.194;7.690;2023-06-22T06:16:51;15.03;;;10.13;;
18449;SDS011;9354;50.194;7.690;2023-06-22T06:19:19;13.60;;;9.43;;
18449;SDS011;9354;50.194;7.690;2023-06-22T06:21:47;14.60;;;10.17;;
18449;SDS011;9354;50.194;7.690;2023-06-22T06:24:15;12.03;;;8.97;;
18449;SDS011;9354;50.194;7.690;2023-06-22T06:26:42;17.27;;;9.90;;
18449;SDS011;9354;50.194;7.690;2023-06-22T06:29:09;14.90;;;9.67;;
18449;SDS011;9354;50.194;7.690;2023-06-22T06:31:37;16.43;;;9.60;;
18449;SDS011;9354;50.194;7.690;2023-06-22T06:34:04;13.97;;;10.20;;
18449;SDS011;9354;50.194;7.690;2023-06-22T06:36:33;16.53;;;9.20;;
18449;SDS011;9354;50.194;7.690;2023-06-22T06:39:00;12.50;;;9.23;;
18449;SDS011;9354;50.194;7.690;2023-06-22T06:41:28;17.43;;;9.67;;
18449;SDS011;9354;50.194;7.690;2023-06-22T06:43:56;14.70;;;9.80;;
18449;SDS011;9354;50.194;7.690;2023-06-22T06:46:23;15.90;;;9.17;;
18449;SDS011;9354;50.194;7.690;2023-06-22T06:48:50;15.63;;;8.93;;
18449;SDS011;9354;50.194;7.690;2023-06-22T06:51:18;13.63;;;9.27;;
18449;SDS011;9354;50.194;7.690;2023-06-22T06:53:47;17.47;;;9.57;;
18449;SDS011;9354;50.194;7.690;2023-06-22T06:56:14;14.33;;;10.03;;
18449;SDS011;9354;50.194;7.690;2023-06-22T06:58:41;14.17;;;10.00;;
18449;SDS011;9354;50.194;7.690;2023-06-22T07:01:10;17.07;;;10.03;;
18449;SDS011;9354;50.194;7.690;2023-06-22T07:03:38;13.60;;;9.57;;
18449;SDS011;9354;50.194;7.690;2023-06-22T07:06:05;17.00;;;10.17;;
18449;SDS011;9354;50.194;7.690;2023-06-22T07:08:33;14.30;;;9.40;;
18449;SDS011;9354;50.194;7.690;2023-06-22T07:11:02;14.23;;;9.03;;
18449;SDS011;9354;50.194;7.690;2023-06-22T07:13:29;13.10;;;9.03;;
18449;SDS011;9354;50.194;7.690;2023-06-22T07:15:56;15.90;;;9.20;;
18449;SDS011;9354;50.194;7.690;2023-06-22T07:18:24;12.63;;;8.87;;
18449;SDS011;9354;50.194;7.690;2023-06-22T07:20:52;12.77;;;8.40;;
18449;SDS011;9354;50.194;7.690;2023-06-22T07:23:19;13.70;;;8.47;;
18449;SDS011;9354;50.194;7.690;2023-06-22T07:25:47;13.23;;;8.30;;
18449;SDS011;9354;50.194;7.690;2023-06-22T07:28:16;11.83;;;8.33;;
18449;SDS011;9354;50.194;7.690;2023-06-22T07:30:43;13.23;;;8.50;;
18449;SDS011;9354;50.194;7.690;2023-06-22T07:33:10;12.80;;;7.87;;
18449;SDS011;9354;50.194;7.690;2023-06-22T07:35:38;10.83;;;7.93;;
18449;SDS011;9354;50.194;7.690;2023-06-22T07:38:05;11.67;;;7.70;;
18449;SDS011;9354;50.194;7.690;2023-06-22T07:40:34;11.83;;;8.57;;
18449;SDS011;9354;50.194;7.690;2023-06-22T07:43:02;11.20;;;8.07;;
18449;SDS011;9354;50.194;7.690;2023-06-22T07:45:31;12.70;;;8.30;;
18449;SDS011;9354;50.194;7.690;2023-06-22T07:48:00;10.83;;;8.17;;
18449;SDS011;9354;50.194;7.690;2023-06-22T07:50:28;12.70;;;7.73;;
18449;SDS011;9354;50.194;7.690;2023-06-22T07:52:55;11.73;;;8.37;;
18449;SDS011;9354;50.194;7.690;2023-06-22T07:55:22;16.83;;;8.03;;
18449;SDS011;9354;50.194;7.690;2023-06-22T07:57:50;16.20;;;8.40;;
18449;SDS011;9354;50.194;7.690;2023-06-22T08:00:18;11.53;;;7.70;;
18449;SDS011;9354;50.194;7.690;2023-06-22T08:02:47;16.00;;;8.00;;
18449;SDS011;9354;50.194;7.690;2023-06-22T08:05:15;12.47;;;8.10;;
18449;SDS011;9354;50.194;7.690;2023-06-22T08:07:43;11.00;;;8.33;;
18449;SDS011;9354;50.194;7.690;2023-06-22T08:10:10;11.30;;;7.67;;
18449;SDS011;9354;50.194;7.690;2023-06-22T08:12:38;12.40;;;8.57;;
18449;SDS011;9354;50.194;7.690;2023-06-22T08:15:06;11.80;;;7.83;;
18449;SDS011;9354;50.194;7.690;2023-06-22T08:17:36;11.90;;;8.40;;
18449;SDS011;9354;50.194;7.690;2023-06-22T08:20:05;12.17;;;8.17;;
18449;SDS011;9354;50.194;7.690;2023-06-22T08:22:37;12.80;;;8.30;;
18449;SDS011;9354;50.194;7.690;2023-06-22T08:25:05;13.10;;;8.10;;
18449;SDS011;9354;50.194;7.690;2023-06-22T08:27:35;14.63;;;8.33;;
18449;SDS011;9354;50.194;7.690;2023-06-22T08:30:03;11.73;;;8.17;;
18449;SDS011;9354;50.194;7.690;2023-06-22T08:32:31;12.53;;;8.10;;
18449;SDS011;9354;50.194;7.690;2023-06-22T08:34:59;10.30;;;7.87;;
18449;SDS011;9354;50.194;7.690;2023-06-22T08:37:27;10.50;;;8.17;;
18449;SDS011;9354;50.194;7.690;2023-06-22T08:39:57;12.97;;;7.90;;
18449;SDS011;9354;50.194;7.690;2023-06-22T08:42:25;12.37;;;8.33;;
18449;SDS011;9354;50.194;7.690;2023-06-22T08:44:52;13.40;;;8.37;;
18449;SDS011;9354;50.194;7.690;2023-06-22T08:47:20;12.30;;;7.50;;
18449;SDS011;9354;50.194;7.690;2023-06-22T08:49:48;13.27;;;8.73;;
18449;SDS011;9354;50.194;7.690;2023-06-22T08:52:16;12.00;;;8.17;;
18449;SDS011;9354;50.194;7.690;2023-06-22T08:54:46;10.20;;;7.67;;
18449;SDS011;9354;50.194;7.690;2023-06-22T08:57:14;10.23;;;7.07;;
18449;SDS011;9354;50.194;7.690;2023-06-22T08:59:41;10.93;;;7.60;;
18449;SDS011;9354;50.194;7.690;2023-06-22T09:02:08;13.23;;;8.00;;
18449;SDS011;9354;50.194;7.690;2023-06-22T09:04:36;11.53;;;7.63;;
18449;SDS011;9354;50.194;7.690;2023-06-22T09:07:03;12.53;;;7.80;;
18449;SDS011;9354;50.194;7.690;2023-06-22T09:09:32;11.63;;;7.57;;
18449;SDS011;9354;50.194;7.690;2023-06-22T09:12:00;16.73;;;8.33;;
18449;SDS011;9354;50.194;7.690;2023-06-22T09:14:28;11.17;;;8.27;;
18449;SDS011;9354;50.194;7.690;2023-06-22T09:16:55;13.32;;;8.20;;
18449;SDS011;9354;50.194;7.690;2023-06-22T09:19:23;13.90;;;8.67;;
18449;SDS011;9354;50.194;7.690;2023-06-22T09:21:50;12.27;;;8.50;;
18449;SDS011;9354;50.194;7.690;2023-06-22T09:24:18;12.70;;;8.40;;
18449;SDS011;9354;50.194;7.690;2023-06-22T09:26:45;10.52;;;7.70;;
18449;SDS011;9354;50.194;7.690;2023-06-22T09:29:14;16.47;;;8.00;;
18449;SDS011;9354;50.194;7.690;2023-06-22T09:31:41;11.87;;;7.90;;
18449;SDS011;9354;50.194;7.690;2023-06-22T09:34:09;10.07;;;7.67;;
18449;SDS011;9354;50.194;7.690;2023-06-22T09:36:37;11.33;;;7.87;;
18449;SDS011;9354;50.194;7.690;2023-06-22T09:39:05;14.10;;;7.90;;
18449;SDS011;9354;50.194;7.690;2023-06-22T09:41:32;12.47;;;7.97;;
18449;SDS011;9354;50.194;7.690;2023-06-22T09:44:00;12.23;;;7.90;;
18449;SDS011;9354;50.194;7.690;2023-06-22T09:46:28;11.17;;;7.63;;
18449;SDS011;9354;50.194;7.690;2023-06-22T09:48:56;10.97;;;7.17;;
18449;SDS011;9354;50.194;7.690;2023-06-22T09:51:23;11.50;;;7.37;;
18449;SDS011;9354;50.194;7.690;2023-06-22T09:53:51;13.93;;;7.93;;
18449;SDS011;9354;50.194;7.690;2023-06-22T09:56:19;10.83;;;7.47;;
18449;SDS011;9354;50.194;7.690;2023-06-22T09:58:47;11.80;;;7.77;;
18449;SDS011;9354;50.194;7.690;2023-06-22T10:01:15;13.57;;;7.10;;
18449;SDS011;9354;50.194;7.690;2023-06-22T10:03:44;11.73;;;7.33;;
18449;SDS011;9354;50.194;7.690;2023-06-22T10:06:12;9.63;;;6.97;;
18449;SDS011;9354;50.194;7.690;2023-06-22T10:08:39;7.93;;;6.33;;
18449;SDS011;9354;50.194;7.690;2023-06-22T10:11:07;10.00;;;6.37;;
18449;SDS011;9354;50.194;7.690;2023-06-22T10:13:34;10.83;;;6.23;;
18449;SDS011;9354;50.194;7.690;2023-06-22T10:16:02;11.13;;;6.07;;
18449;SDS011;9354;50.194;7.690;2023-06-22T10:18:29;10.60;;;6.27;;
18449;SDS011;9354;50.194;7.690;2023-06-22T10:20:59;9.57;;;6.37;;
18449;SDS011;9354;50.194;7.690;2023-06-22T10:23:27;10.20;;;7.00;;
18449;SDS011;9354;50.194;7.690;2023-06-22T10:25:54;10.53;;;6.70;;
18449;SDS011;9354;50.194;7.690;2023-06-22T10:28:23;10.83;;;6.97;;
18449;SDS011;9354;50.194;7.690;2023-06-22T10:30:51;11.80;;;7.07;;
18449;SDS011;9354;50.194;7.690;2023-06-22T10:33:18;9.90;;;6.30;;
18449;SDS011;9354;50.194;7.690;2023-06-22T10:35:46;9.00;;;6.80;;
18449;SDS011;9354;50.194;7.690;2023-06-22T10:38:15;10.70;;;7.10;;
18449;SDS011;9354;50.194;7.690;2023-06-22T10:40:42;11.57;;;7.33;;
18449;SDS011;9354;50.194;7.690;2023-06-22T10:43:11;12.87;;;7.13;;
18449;SDS011;9354;50.194;7.690;2023-06-22T10:45:38;10.80;;;7.37;;
18449;SDS011;9354;50.194;7.690;2023-06-22T10:48:06;9.93;;;6.57;;
18449;SDS011;9354;50.194;7.690;2023-06-22T10:50:33;12.17;;;7.10;;
18449;SDS011;9354;50.194;7.690;2023-06-22T10:53:00;12.00;;;7.78;;
18449;SDS011;9354;50.194;7.690;2023-06-22T10:55:29;9.85;;;6.82;;
18449;SDS011;9354;50.194;7.690;2023-06-22T10:57:56;14.18;;;7.13;;
18449;SDS011;9354;50.194;7.690;2023-06-22T11:00:24;14.98;;;7.82;;
18449;SDS011;9354;50.194;7.690;2023-06-22T11:02:51;13.05;;;7.63;;
18449;SDS011;9354;50.194;7.690;2023-06-22T11:05:19;15.15;;;7.65;;
18449;SDS011;9354;50.194;7.690;2023-06-22T11:07:46;12.25;;;7.22;;
18449;SDS011;9354;50.194;7.690;2023-06-22T11:10:15;9.88;;;6.93;;
18449;SDS011;9354;50.194;7.690;2023-06-22T11:12:44;11.43;;;7.45;;
18449;SDS011;9354;50.194;7.690;2023-06-22T11:15:11;12.13;;;7.35;;
18449;SDS011;9354;50.194;7.690;2023-06-22T11:17:38;10.75;;;7.35;;
18449;SDS011;9354;50.194;7.690;2023-06-22T11:20:06;15.98;;;7.18;;
18449;SDS011;9354;50.194;7.690;2023-06-22T11:22:36;12.23;;;7.95;;
18449;SDS011;9354;50.194;7.690;2023-06-22T11:25:05;11.23;;;7.70;;
18449;SDS011;9354;50.194;7.690;2023-06-22T11:27:33;11.95;;;7.13;;
18449;SDS011;9354;50.194;7.690;2023-06-22T11:30:02;9.60;;;6.75;;
18449;SDS011;9354;50.194;7.690;2023-06-22T11:32:30;10.57;;;7.00;;
18449;SDS011;9354;50.194;7.690;2023-06-22T11:34:57;11.65;;;7.55;;
18449;SDS011;9354;50.194;7.690;2023-06-22T11:37:24;13.95;;;7.78;;
18449;SDS011;9354;50.194;7.690;2023-06-22T11:39:52;10.77;;;7.47;;
18449;SDS011;9354;50.194;7.690;2023-06-22T11:42:20;11.95;;;7.25;;
18449;SDS011;9354;50.194;7.690;2023-06-22T11:44:49;15.70;;;7.82;;
18449;SDS011;9354;50.194;7.690;2023-06-22T11:47:17;11.70;;;8.13;;
18449;SDS011;9354;50.194;7.690;2023-06-22T11:49:45;12.82;;;8.15;;
18449;SDS011;9354;50.194;7.690;2023-06-22T11:52:12;12.30;;;8.25;;
18449;SDS011;9354;50.194;7.690;2023-06-22T11:54:39;12.18;;;8.05;;
18449;SDS011;9354;50.194;7.690;2023-06-22T11:57:07;14.07;;;7.63;;
18449;SDS011;9354;50.194;7.690;2023-06-22T11:59:34;13.70;;;7.53;;
18449;SDS011;9354;50.194;7.690;2023-06-22T12:02:01;15.55;;;7.70;;
18449;SDS011;9354;50.194;7.690;2023-06-22T12:04:32;13.63;;;7.63;;
18449;SDS011;9354;50.194;7.690;2023-06-22T12:06:59;15.15;;;7.72;;
18449;SDS011;9354;50.194;7.690;2023-06-22T12:09:27;17.02;;;8.77;;
18449;SDS011;9354;50.194;7.690;2023-06-22T12:11:55;14.13;;;7.72;;
18449;SDS011;9354;50.194;7.690;2023-06-22T12:14:22;11.55;;;7.63;;
18449;SDS011;9354;50.194;7.690;2023-06-22T12:16:49;14.57;;;7.72;;
18449;SDS011;9354;50.194;7.690;2023-06-22T12:19:17;10.75;;;7.78;;
18449;SDS011;9354;50.194;7.690;2023-06-22T12:21:45;14.43;;;8.00;;
18449;SDS011;9354;50.194;7.690;2023-06-22T12:24:13;10.27;;;7.63;;
18449;SDS011;9354;50.194;7.690;2023-06-22T12:26:40;13.75;;;7.85;;
18449;SDS011;9354;50.194;7.690;2023-06-22T12:29:09;10.30;;;7.40;;
18449;SDS011;9354;50.194;7.690;2023-06-22T12:31:36;16.73;;;8.75;;
18449;SDS011;9354;50.194;7.690;2023-06-22T12:34:05;18.30;;;8.82;;
18449;SDS011;9354;50.194;7.690;2023-06-22T12:36:32;11.27;;;8.40;;
18449;SDS011;9354;50.194;7.690;2023-06-22T12:39:01;14.43;;;8.70;;
18449;SDS011;9354;50.194;7.690;2023-06-22T12:41:28;12.48;;;8.80;;
18449;SDS011;9354;50.194;7.690;2023-06-22T12:43:55;18.70;;;8.40;;
18449;SDS011;9354;50.194;7.690;2023-06-22T12:46:23;13.77;;;8.48;;
18449;SDS011;9354;50.194;7.690;2023-06-22T12:48:50;19.35;;;8.90;;
18449;SDS011;9354;50.194;7.690;2023-06-22T12:51:21;12.07;;;8.18;;
18449;SDS011;9354;50.194;7.690;2023-06-22T12:53:48;14.77;;;8.15;;
18449;SDS011;9354;50.194;7.690;2023-06-22T12:56:17;12.68;;;8.82;;
18449;SDS011;9354;50.194;7.690;2023-06-22T12:58:44;11.10;;;7.95;;
18449;SDS011;9354;50.194;7.690;2023-06-22T13:01:12;11.00;;;8.02;;
18449;SDS011;9354;50.194;7.690;2023-06-22T13:03:40;10.73;;;7.72;;
18449;SDS011;9354;50.194;7.690;2023-06-22T13:06:08;10.57;;;7.93;;
18449;SDS011;9354;50.194;7.690;2023-06-22T13:08:35;13.02;;;7.47;;
18449;SDS011;9354;50.194;7.690;2023-06-22T13:11:03;14.25;;;7.68;;
18449;SDS011;9354;50.194;7.690;2023-06-22T13:13:31;13.77;;;7.82;;
18449;SDS011;9354;50.194;7.690;2023-06-22T13:15:59;12.70;;;7.68;;
18449;SDS011;9354;50.194;7.690;2023-06-22T13:18:27;14.13;;;7.60;;
18449;SDS011;9354;50.194;7.690;2023-06-22T13:20:54;16.35;;;7.20;;
18449;SDS011;9354;50.194;7.690;2023-06-22T13:23:23;17.33;;;8.30;;
18449;SDS011;9354;50.194;7.690;2023-06-22T13:25:51;12.15;;;7.00;;
18449;SDS011;9354;50.194;7.690;2023-06-22T13:28:18;15.63;;;7.20;;
18449;SDS011;9354;50.194;7.690;2023-06-22T13:30:47;9.40;;;7.10;;
18449;SDS011;9354;50.194;7.690;2023-06-22T13:33:15;10.25;;;7.15;;
18449;SDS011;9354;50.194;7.690;2023-06-22T13:35:42;12.73;;;7.10;;
18449;SDS011;9354;50.194;7.690;2023-06-22T13:38:10;15.73;;;7.78;;
18449;SDS011;9354;50.194;7.690;2023-06-22T13:40:37;12.48;;;6.18;;
18449;SDS011;9354;50.194;7.690;2023-06-22T13:43:05;13.90;;;6.30;;
18449;SDS011;9354;50.194;7.690;2023-06-22T13:45:32;10.63;;;6.00;;
18449;SDS011;9354;50.194;7.690;2023-06-22T13:48:01;10.90;;;6.07;;
18449;SDS011;9354;50.194;7.690;2023-06-22T13:50:28;14.57;;;7.28;;
18449;SDS011;9354;50.194;7.690;2023-06-22T13:52:56;11.52;;;6.88;;
18449;SDS011;9354;50.194;7.690;2023-06-22T13:55:23;13.90;;;6.22;;
18449;SDS011;9354;50.194;7.690;2023-06-22T13:57:52;14.85;;;6.70;;
18449;SDS011;9354;50.194;7.690;2023-06-22T14:00:19;16.52;;;6.85;;
18449;SDS011;9354;50.194;7.690;2023-06-22T14:02:47;12.57;;;5.93;;
18449;SDS011;9354;50.194;7.690;2023-06-22T14:05:15;16.77;;;6.90;;
18449;SDS011;9354;50.194;7.690;2023-06-22T14:07:43;14.38;;;6.22;;
18449;SDS011;9354;50.194;7.690;2023-06-22T14:10:10;14.97;;;6.57;;
18449;SDS011;9354;50.194;7.690;2023-06-22T14:12:37;14.65;;;6.63;;
18449;SDS011;9354;50.194;7.690;2023-06-22T14:15:05;15.02;;;6.68;;
18449;SDS011;9354;50.194;7.690;2023-06-22T14:17:33;13.63;;;6.82;;
18449;SDS011;9354;50.194;7.690;2023-06-22T14:20:00;14.63;;;7.38;;
18449;SDS011;9354;50.194;7.690;2023-06-22T14:22:30;14.43;;;6.03;;
18449;SDS011;9354;50.194;7.690;2023-06-22T14:24:57;21.03;;;7.17;;
18449;SDS011;9354;50.194;7.690;2023-06-22T14:27:25;34.13;;;8.30;;
18449;SDS011;9354;50.194;7.690;2023-06-22T14:29:52;29.03;;;8.97;;
18449;SDS011;9354;50.194;7.690;2023-06-22T14:32:20;15.23;;;5.97;;
18449;SDS011;9354;50.194;7.690;2023-06-22T14:34:47;10.70;;;3.23;;
18449;SDS011;9354;50.194;7.690;2023-06-22T14:37:15;11.03;;;3.20;;
18449;SDS011;9354;50.194;7.690;2023-06-22T14:39:44;10.60;;;3.40;;
18449;SDS011;9354;50.194;7.690;2023-06-22T14:42:11;9.83;;;2.80;;
18449;SDS011;9354;50.194;7.690;2023-06-22T14:44:39;15.30;;;3.50;;
18449;SDS011;9354;50.194;7.690;2023-06-22T14:47:06;14.83;;;2.90;;
18449;SDS011;9354;50.194;7.690;2023-06-22T14:49:34;21.40;;;3.50;;
18449;SDS011;9354;50.194;7.690;2023-06-22T14:52:02;18.87;;;3.87;;
18449;SDS011;9354;50.194;7.690;2023-06-22T14:54:30;16.50;;;3.63;;